PAEN/ENA METAR and TAF weather

Enter ICAO airport designator
Station Type Date Time Source
PAEN METAR 2020/09/20 14:53 UTC NOAA

PAEN 201453Z 00000KT 10SM MIFG SCT037 02/01 A2981 RMK AO2 SLP095 T00170011 58002


Station Type Date Time Source
PAEN Decoded METAR 2020/09/20 14:53 UTC NOAA

KENAI MUNICIPAL AIRPORT, AK, United States (PAEN) 60-35N 151-14W 25M
Sep 20, 2020 - 10:53 AM EDT / 2020.09.20 1453 UTC
Wind: Calm:0
Visibility: 10 mile(s):0
Sky conditions: partly cloudy
Weather: shallow fog
Temperature: 35.1 F (1.7 C)
Dew Point: 34.0 F (1.1 C)
Relative Humidity: 95%
Pressure (altimeter): 29.81 in. Hg (1009 hPa)
Pressure tendency: 0.01 inches (0.2 hPa) lower than three hours ago
ob: PAEN 201453Z 00000KT 10SM MIFG SCT037 02/01 A2981 RMK AO2 SLP095 T00170011 58002
cycle: 15

Station Type Date Time Source
PAEN TAF 2020/09/20 13:21 UTC NOAA

TAF
AMD PAEN 201318Z 2013/2112 VRB03KT 1/2SM FG OVC035
TEMPO 2013/2016 P6SM NSW OVC035
FM201800 VRB05KT P6SM OVC015
FM202200 VRB05KT P6SM SCT100
FM211000 VRB05KT 1/2SM FG OVC002

Example: see airport list